Time;durP1;ratioP1;P1;durP2;ratioP2;P2;SDS_P1;SDS_P2;PMS_P1;PMS_P2;Temp;Humidity;BMP_temperature;BMP_pressure;BME280_temperature;BME280_humidity;BME280_pressure;Samples;Min_cycle;Max_cycle;Signal;HPM_P1;HPM_P2
2022/03/19 00:03:21;;;;;;;11.68;4.75;;;3.30;99.90;;;;;;5053465;28;20193;-61
2022/03/19 00:06:47;;;;;;;19.85;6.00;;;3.10;99.90;;;;;;5060336;28;20032;-61
2022/03/19 00:10:14;;;;;;;12.77;5.00;;;3.10;99.90;;;;;;5062473;28;20789;-60
2022/03/19 00:13:37;;;;;;;10.55;4.40;;;3.10;99.90;;;;;;5063312;28;20061;-60
2022/03/19 00:17:03;;;;;;;17.50;4.88;;;3.10;99.90;;;;;;5054363;28;20048;-61
2022/03/19 00:20:28;;;;;;;22.88;5.60;;;3.00;99.90;;;;;;5057063;28;20040;-58
2022/03/19 00:23:53;;;;;;;21.38;5.68;;;3.00;99.90;;;;;;5066387;28;20040;-60
2022/03/19 00:27:19;;;;;;;13.13;5.47;;;3.00;99.90;;;;;;5061056;28;20056;-61
2022/03/19 00:30:44;;;;;;;17.55;3.97;;;3.00;99.90;;;;;;5047720;28;20060;-60
2022/03/19 00:34:10;;;;;;;19.17;4.95;;;3.00;99.90;;;;;;5059636;28;20048;-60
2022/03/19 00:37:35;;;;;;;14.60;4.35;;;2.80;99.90;;;;;;5063731;28;20037;-60
2022/03/19 00:41:02;;;;;;;18.40;5.47;;;2.70;99.90;;;;;;5056699;28;20040;-60
2022/03/19 00:44:26;;;;;;;16.50;4.22;;;2.70;99.90;;;;;;5066460;28;20523;-60
2022/03/19 00:47:51;;;;;;;12.23;3.55;;;2.50;99.90;;;;;;5061259;28;20032;-61
2022/03/19 00:51:16;;;;;;;10.85;4.00;;;2.40;99.90;;;;;;5047450;28;20699;-60
2022/03/19 00:54:42;;;;;;;9.20;4.20;;;2.50;99.90;;;;;;5057937;28;20127;-60
2022/03/19 00:58:07;;;;;;;16.75;4.88;;;2.60;99.90;;;;;;5055500;28;20044;-60
2022/03/19 01:01:34;;;;;;;19.70;5.15;;;2.50;99.90;;;;;;5044445;28;20122;-60
2022/03/19 01:04:58;;;;;;;8.25;3.35;;;2.50;99.90;;;;;;5052588;28;20135;-60
2022/03/19 01:08:23;;;;;;;11.82;4.18;;;2.40;99.90;;;;;;5054567;28;20611;-61
2022/03/19 01:11:49;;;;;;;7.13;3.65;;;2.40;99.90;;;;;;5057057;28;20497;-60
2022/03/19 01:15:15;;;;;;;13.32;3.97;;;2.20;99.90;;;;;;5058115;28;20029;-60
2022/03/19 01:18:39;;;;;;;8.45;3.20;;;2.00;99.90;;;;;;5056857;28;20052;-61
2022/03/19 01:22:05;;;;;;;16.38;4.65;;;1.90;99.90;;;;;;5047223;28;20086;-61
2022/03/19 01:25:30;;;;;;;10.07;3.55;;;1.70;99.90;;;;;;5058478;28;20049;-60
2022/03/19 01:28:55;;;;;;;19.08;4.43;;;1.70;99.90;;;;;;5063321;28;20621;-60
2022/03/19 01:32:21;;;;;;;11.02;4.70;;;1.60;99.90;;;;;;5059068;28;20064;-57
2022/03/19 01:35:46;;;;;;;12.70;3.45;;;1.50;99.90;;;;;;5054563;28;20403;-59
2022/03/19 01:39:12;;;;;;;20.33;5.63;;;1.40;99.90;;;;;;5028084;28;20046;-60
2022/03/19 01:42:43;;;;;;;16.98;5.10;;;1.30;99.90;;;;;;5063272;28;20051;-59
2022/03/19 01:46:08;;;;;;;16.90;6.57;;;1.40;99.90;;;;;;5048465;28;20037;-60
2022/03/19 01:49:34;;;;;;;14.85;5.43;;;1.30;99.90;;;;;;5062548;28;20090;-56
2022/03/19 01:52:59;;;;;;;13.60;4.40;;;1.30;99.90;;;;;;5062223;28;20423;-59
2022/03/19 01:56:26;;;;;;;15.13;4.72;;;1.20;99.90;;;;;;5046200;28;20078;-59
2022/03/19 01:59:53;;;;;;;13.85;5.30;;;1.10;99.90;;;;;;5044366;28;20523;-59
2022/03/19 02:03:18;;;;;;;16.55;4.85;;;1.10;99.90;;;;;;5061682;28;20033;-58
2022/03/19 02:06:44;;;;;;;18.38;5.25;;;1.10;99.90;;;;;;5051961;28;20137;-56
2022/03/19 02:10:09;;;;;;;14.40;3.72;;;1.00;99.90;;;;;;5061857;28;20044;-60
2022/03/19 02:13:34;;;;;;;15.35;4.93;;;1.00;99.90;;;;;;5027864;28;20135;-57
2022/03/19 02:16:59;;;;;;;14.98;4.72;;;1.00;99.90;;;;;;5040952;28;20029;-59
2022/03/19 02:20:26;;;;;;;15.80;5.70;;;1.00;99.90;;;;;;5053099;28;20768;-55
2022/03/19 02:27:15;;;;;;;24.52;6.72;;;1.00;99.90;;;;;;5047466;28;20561;-57
2022/03/19 02:30:39;;;;;;;16.17;5.90;;;1.00;99.90;;;;;;5047082;28;20033;-59
2022/03/19 02:34:08;;;;;;;18.02;5.53;;;1.00;99.90;;;;;;5038968;28;20029;-59
2022/03/19 02:37:30;;;;;;;20.00;6.00;;;0.90;99.90;;;;;;5067762;28;20381;-59
2022/03/19 02:40:55;;;;;;;18.90;5.78;;;0.90;99.90;;;;;;5047327;28;20130;-59
2022/03/19 02:44:21;;;;;;;15.02;4.40;;;0.90;99.90;;;;;;5038151;28;20036;-60
2022/03/19 02:47:58;;;;;;;14.93;3.80;;;0.80;99.90;;;;;;5054913;28;20446;-58
2022/03/19 02:51:23;;;;;;;11.50;4.30;;;0.60;99.90;;;;;;5032477;28;20042;-59
2022/03/19 02:54:49;;;;;;;14.23;4.80;;;0.60;99.90;;;;;;5057119;28;20435;-59
2022/03/19 02:58:14;;;;;;;14.18;3.65;;;0.60;99.90;;;;;;5068630;28;20071;-59
2022/03/19 03:01:39;;;;;;;15.70;4.85;;;0.60;99.90;;;;;;5061286;28;20044;-60
2022/03/19 03:05:05;;;;;;;17.83;5.00;;;0.70;99.90;;;;;;5049457;28;20045;-59
2022/03/19 03:08:30;;;;;;;13.85;4.18;;;0.70;99.90;;;;;;5060880;28;20044;-57
2022/03/19 03:11:55;;;;;;;15.30;3.92;;;0.60;99.90;;;;;;5066268;28;20417;-59
2022/03/19 03:15:21;;;;;;;15.45;4.70;;;0.60;99.90;;;;;;5052497;28;20037;-59
2022/03/19 03:18:46;;;;;;;11.13;4.18;;;0.50;99.90;;;;;;5060526;28;20062;-59
2022/03/19 03:22:11;;;;;;;15.88;4.80;;;0.30;99.90;;;;;;5067999;28;20047;-59
2022/03/19 03:25:37;;;;;;;15.02;4.53;;;0.20;99.90;;;;;;5044244;28;20098;-60
2022/03/19 03:29:02;;;;;;;11.60;3.88;;;0.10;99.90;;;;;;5064894;28;20087;-59
2022/03/19 03:32:30;;;;;;;10.57;3.78;;;-0.10;99.90;;;;;;5065951;28;20123;-60
2022/03/19 03:35:56;;;;;;;10.65;4.50;;;-0.10;99.90;;;;;;5046659;28;20041;-59
2022/03/19 03:39:21;;;;;;;15.35;5.03;;;0.00;99.90;;;;;;5054624;28;20059;-59
2022/03/19 03:42:46;;;;;;;16.58;5.75;;;0.10;99.90;;;;;;5070667;28;20032;-59
2022/03/19 03:46:12;;;;;;;15.25;4.30;;;0.10;99.90;;;;;;5048870;28;20199;-57
2022/03/19 03:49:37;;;;;;;19.40;5.25;;;0.10;99.90;;;;;;5059413;28;20029;-59
2022/03/19 03:53:03;;;;;;;11.68;4.25;;;0.10;99.90;;;;;;5051285;28;20044;-59
2022/03/19 03:56:29;;;;;;;14.30;4.07;;;0.10;99.90;;;;;;5059993;28;20037;-59
2022/03/19 03:59:53;;;;;;;16.20;3.90;;;0.10;99.90;;;;;;5056755;28;20589;-59
2022/03/19 04:03:19;;;;;;;14.88;3.90;;;0.10;99.90;;;;;;5059654;28;20101;-57
2022/03/19 04:06:44;;;;;;;11.00;2.80;;;0.10;99.90;;;;;;5040257;28;20071;-59
2022/03/19 04:10:09;;;;;;;8.73;3.15;;;0.00;99.90;;;;;;5046884;28;20041;-60
2022/03/19 04:13:35;;;;;;;12.90;3.17;;;0.00;99.90;;;;;;5067209;28;20120;-59
2022/03/19 04:17:00;;;;;;;14.82;3.17;;;0.00;99.90;;;;;;5059673;28;20157;-58
2022/03/19 04:20:25;;;;;;;7.45;2.95;;;-0.10;99.90;;;;;;5045133;28;20037;-58
2022/03/19 04:23:51;;;;;;;10.45;2.75;;;-0.10;99.90;;;;;;5059710;28;20051;-58
2022/03/19 04:27:16;;;;;;;7.82;2.90;;;-0.20;99.90;;;;;;5059290;28;20090;-60
2022/03/19 04:30:42;;;;;;;8.05;2.88;;;-0.30;99.90;;;;;;5043846;28;20520;-59
2022/03/19 04:34:07;;;;;;;11.60;2.72;;;-0.40;99.90;;;;;;5055717;28;20120;-58
2022/03/19 04:37:32;;;;;;;12.57;2.97;;;-0.40;99.90;;;;;;5069539;28;20032;-59
2022/03/19 04:40:59;;;;;;;10.77;2.90;;;-0.40;99.90;;;;;;5045345;28;20047;-60
2022/03/19 04:44:23;;;;;;;10.68;2.75;;;-0.50;99.90;;;;;;5052604;28;20033;-59
2022/03/19 04:47:48;;;;;;;14.90;3.42;;;-0.70;99.90;;;;;;5050118;28;20566;-59
2022/03/19 04:51:20;;;;;;;12.50;2.83;;;-0.70;99.90;;;;;;5062014;28;20040;-59
2022/03/19 04:54:45;;;;;;;10.35;2.25;;;-0.80;99.90;;;;;;5050207;28;20033;-59
2022/03/19 04:58:11;;;;;;;8.50;1.52;;;-1.00;99.90;;;;;;5066521;28;20476;-59
2022/03/19 05:01:36;;;;;;;5.18;2.00;;;-1.00;99.90;;;;;;5029931;28;20057;-59
2022/03/19 05:05:01;;;;;;;9.65;2.58;;;-1.10;99.90;;;;;;5047595;28;20037;-59
2022/03/19 05:08:27;;;;;;;11.70;2.65;;;-1.10;99.90;;;;;;5041976;28;20042;-56
2022/03/19 05:11:52;;;;;;;11.85;2.47;;;-1.20;99.90;;;;;;5029043;28;20042;-57
2022/03/19 05:15:17;;;;;;;14.48;2.67;;;-1.20;99.90;;;;;;5029951;28;20468;-58
2022/03/19 05:18:43;;;;;;;13.55;2.30;;;-1.30;99.90;;;;;;5048009;28;20040;-57
2022/03/19 05:22:08;;;;;;;7.70;1.75;;;-1.30;99.90;;;;;;5061347;28;20061;-58
2022/03/19 05:25:34;;;;;;;11.15;2.00;;;-1.30;99.90;;;;;;5049173;28;20101;-58
2022/03/19 05:28:59;;;;;;;7.35;1.83;;;-1.20;99.90;;;;;;5046030;28;20108;-58
2022/03/19 05:32:24;;;;;;;7.22;2.35;;;-1.20;99.90;;;;;;5051230;28;20037;-57
2022/03/19 05:35:50;;;;;;;11.88;2.15;;;-1.10;99.90;;;;;;5029605;28;20041;-59
2022/03/19 05:39:15;;;;;;;12.43;2.53;;;-0.90;99.90;;;;;;5058414;28;20153;-59
2022/03/19 05:42:40;;;;;;;8.57;3.17;;;-0.80;99.90;;;;;;5054149;28;20025;-59
2022/03/19 05:46:06;;;;;;;14.13;2.75;;;-0.70;99.90;;;;;;5029334;28;20485;-58
2022/03/19 05:49:31;;;;;;;7.55;2.25;;;-0.40;99.90;;;;;;5066384;28;20032;-59
2022/03/19 05:52:17;;;;;;;19.35;3.67;;;-0.20;99.90;;;;;;5046501;28;20037;-50
2022/03/19 05:54:42;;;;;;;6.07;2.38;;;0.40;99.90;;;;;;5068537;28;20119;-51
2022/03/19 05:57:08;;;;;;;9.60;4.38;;;1.10;99.90;;;;;;5047761;28;20062;-51
2022/03/19 05:59:34;;;;;;;14.35;4.53;;;1.60;99.90;;;;;;5068248;28;20123;-53
2022/03/19 06:02:00;;;;;;;10.10;3.85;;;3.40;99.90;;;;;;5047661;28;20021;-57
2022/03/19 06:04:25;;;;;;;11.85;3.25;;;5.10;99.90;;;;;;5049139;28;20055;-51
2022/03/19 06:07:31;;;;;;;12.00;3.30;;;6.50;99.90;;;;;;5052793;28;20025;-55
2022/03/19 06:10:56;;;;;;;10.43;3.30;;;8.00;99.90;;;;;;5028723;28;20429;-52
2022/03/19 06:14:21;;;;;;;13.93;4.57;;;9.60;90.60;;;;;;5065533;28;20032;-53
2022/03/19 06:17:47;;;;;;;10.32;2.97;;;10.90;72.30;;;;;;5047568;28;20033;-51
2022/03/19 06:21:12;;;;;;;8.75;2.50;;;11.90;57.30;;;;;;5057606;28;20037;-49
2022/03/19 06:24:37;;;;;;;12.70;2.92;;;12.60;54.70;;;;;;5065365;28;20060;-53
2022/03/19 06:28:03;;;;;;;6.90;2.53;;;13.50;47.20;;;;;;5065683;28;20041;-54
2022/03/19 06:31:28;;;;;;;9.48;2.70;;;14.30;38.60;;;;;;5057504;28;20086;-51
2022/03/19 06:34:53;;;;;;;7.13;2.20;;;15.00;37.40;;;;;;5057364;28;20110;-51
2022/03/19 06:38:19;;;;;;;8.55;2.67;;;16.00;32.50;;;;;;5042859;28;20044;-53
2022/03/19 06:41:45;;;;;;;6.22;2.83;;;16.60;29.60;;;;;;5057281;28;20532;-53
2022/03/19 06:45:09;;;;;;;6.97;2.03;;;17.00;27.30;;;;;;5064778;28;20044;-52
2022/03/19 06:48:35;;;;;;;7.65;2.42;;;17.60;22.80;;;;;;5041707;28;20047;-48
2022/03/19 06:52:00;;;;;;;9.38;2.60;;;17.80;28.50;;;;;;5060958;28;20037;-49
2022/03/19 06:55:26;;;;;;;8.10;2.50;;;17.90;21.30;;;;;;5048474;28;20033;-50
2022/03/19 06:58:51;;;;;;;10.52;2.63;;;18.50;22.20;;;;;;5043696;28;20504;-53
2022/03/19 07:02:16;;;;;;;7.25;2.58;;;18.90;20.30;;;;;;5051110;28;20040;-54
2022/03/19 07:05:42;;;;;;;6.32;2.33;;;19.00;19.00;;;;;;5055660;28;20131;-51
2022/03/19 07:09:07;;;;;;;7.82;2.28;;;19.10;18.60;;;;;;5060328;28;20040;-50
2022/03/19 07:12:32;;;;;;;7.15;2.22;;;19.40;16.10;;;;;;5049056;28;20121;-50
2022/03/19 07:15:58;;;;;;;4.85;2.15;;;20.10;14.80;;;;;;5028409;28;20034;-55
2022/03/19 07:19:23;;;;;;;8.05;2.85;;;20.30;12.20;;;;;;5066355;28;20055;-54
2022/03/19 07:22:49;;;;;;;6.45;2.70;;;20.30;16.50;;;;;;5044095;28;20476;-54
2022/03/19 07:26:14;;;;;;;7.22;2.75;;;21.00;13.50;;;;;;5031846;28;20061;-53
2022/03/19 07:29:39;;;;;;;8.63;2.92;;;20.90;11.90;;;;;;5060680;28;20066;-53
2022/03/19 07:33:05;;;;;;;11.20;2.83;;;21.20;12.20;;;;;;5053490;28;20037;-56
2022/03/19 07:36:31;;;;;;;7.05;2.17;;;21.00;12.30;;;;;;5068154;28;20040;-52
2022/03/19 07:39:55;;;;;;;6.20;1.90;;;21.00;10.80;;;;;;5060116;28;20047;-49
2022/03/19 07:43:21;;;;;;;6.28;2.08;;;21.10;13.90;;;;;;5045367;28;20063;-57
2022/03/19 07:46:46;;;;;;;4.95;1.60;;;21.20;10.20;;;;;;5058203;28;20027;-54
2022/03/19 07:50:11;;;;;;;5.78;2.00;;;21.40;9.40;;;;;;5068409;28;20063;-56
2022/03/19 07:53:37;;;;;;;7.63;2.40;;;21.70;9.00;;;;;;5050743;28;20037;-52
2022/03/19 07:57:02;;;;;;;6.28;1.85;;;19.20;9.60;;;;;;5063391;28;20539;-49
2022/03/19 08:00:28;;;;;;;5.05;1.90;;;17.40;14.60;;;;;;5051085;28;20131;-52
2022/03/19 08:03:53;;;;;;;11.00;2.50;;;16.30;16.90;;;;;;5046492;28;20053;-51
2022/03/19 08:07:19;;;;;;;8.88;1.90;;;16.80;17.00;;;;;;5057749;28;20140;-51
2022/03/19 08:10:44;;;;;;;6.55;1.73;;;18.40;15.30;;;;;;5050350;28;20040;-52
2022/03/19 08:14:09;;;;;;;5.68;2.30;;;19.10;11.60;;;;;;5063022;28;20036;-54
2022/03/19 08:17:35;;;;;;;6.78;2.30;;;20.40;9.70;;;;;;5051057;28;20392;-50
2022/03/19 08:21:00;;;;;;;7.43;2.55;;;19.30;10.00;;;;;;5066633;28;20102;-53
2022/03/19 08:24:25;;;;;;;7.50;2.40;;;18.90;12.10;;;;;;5058751;28;20119;-53
2022/03/19 08:27:51;;;;;;;6.90;2.30;;;20.90;9.90;;;;;;5066487;28;20208;-55
2022/03/19 08:31:16;;;;;;;4.53;2.00;;;22.40;8.50;;;;;;5059083;28;20119;-57
2022/03/19 08:34:43;;;;;;;7.20;2.45;;;23.10;7.50;;;;;;5064368;28;20566;-52
2022/03/19 08:41:31;;;;;;;8.50;2.45;;;22.00;7.00;;;;;;5030385;28;20547;-57
2022/03/19 08:44:57;;;;;;;7.20;2.33;;;21.30;7.70;;;;;;5049874;28;20116;-50
2022/03/19 08:48:21;;;;;;;7.03;2.25;;;21.80;7.10;;;;;;5039745;28;20091;-56
2022/03/19 08:51:47;;;;;;;7.15;2.22;;;22.90;6.80;;;;;;5036240;28;20060;-56
2022/03/19 08:55:12;;;;;;;7.97;2.63;;;22.60;5.70;;;;;;5052279;28;20045;-55
2022/03/19 08:58:38;;;;;;;8.32;2.67;;;21.90;5.20;;;;;;5066606;28;20113;-54
2022/03/19 09:02:03;;;;;;;5.18;1.92;;;20.40;8.50;;;;;;5062098;28;20053;-53
2022/03/19 09:05:28;;;;;;;6.50;2.67;;;20.80;7.50;;;;;;5049616;28;20491;-54
2022/03/19 09:08:54;;;;;;;5.70;2.20;;;20.20;7.70;;;;;;5059376;28;20431;-52
2022/03/19 09:12:19;;;;;;;7.07;3.05;;;20.40;8.00;;;;;;5048276;28;20037;-57
2022/03/19 09:15:44;;;;;;;4.82;2.53;;;20.30;7.80;;;;;;5058211;28;20484;-57
2022/03/19 09:19:10;;;;;;;7.18;3.03;;;19.40;8.00;;;;;;5063542;28;20114;-55
2022/03/19 09:22:35;;;;;;;7.15;3.17;;;17.50;11.50;;;;;;5048966;28;20052;-55
2022/03/19 09:26:00;;;;;;;8.20;2.97;;;17.00;14.50;;;;;;5058036;28;20041;-53
2022/03/19 09:29:27;;;;;;;7.38;2.88;;;17.60;13.50;;;;;;5066008;28;20445;-53
2022/03/19 09:32:56;;;;;;;7.03;3.00;;;18.60;12.10;;;;;;5050540;28;20033;-51
2022/03/19 09:36:32;;;;;;;9.15;3.35;;;19.20;11.50;;;;;;5030626;28;20132;-55
2022/03/19 09:39:57;;;;;;;7.95;3.53;;;20.00;10.80;;;;;;5050588;28;20056;-53
2022/03/19 09:43:31;;;;;;;9.00;3.00;;;20.10;10.00;;;;;;5044371;28;20043;-57
2022/03/19 09:46:57;;;;;;;9.10;3.78;;;16.90;12.40;;;;;;5063005;28;20056;-54
2022/03/19 09:50:22;;;;;;;9.32;4.10;;;15.30;17.60;;;;;;5048963;28;20033;-57
2022/03/19 09:53:48;;;;;;;7.70;3.75;;;16.80;15.70;;;;;;5057998;28;20032;-55
2022/03/19 09:57:13;;;;;;;9.45;3.83;;;15.90;16.30;;;;;;5047829;28;20040;-56
2022/03/19 10:00:38;;;;;;;7.45;3.05;;;14.70;18.60;;;;;;5057379;28;20447;-52
2022/03/19 10:04:04;;;;;;;9.23;3.53;;;13.70;22.50;;;;;;5065762;28;20071;-56
2022/03/19 10:10:40;;;;;;;11.05;3.60;;;13.10;24.40;;;;;;5062502;28;20051;-53
2022/03/19 10:14:04;;;;;;;8.98;4.40;;;14.40;21.60;;;;;;5062506;28;20028;-53
2022/03/19 10:17:29;;;;;;;13.18;5.32;;;15.80;19.50;;;;;;5045804;28;20436;-51
2022/03/19 10:20:55;;;;;;;14.95;6.10;;;15.40;19.30;;;;;;5056833;28;20040;-52
2022/03/19 10:24:20;;;;;;;15.18;6.20;;;15.70;18.20;;;;;;5049492;28;20481;-52
2022/03/19 10:27:45;;;;;;;11.65;5.90;;;15.20;19.20;;;;;;5043218;28;20041;-52
2022/03/19 10:31:14;;;;;;;15.75;6.28;;;13.40;23.50;;;;;;5064735;28;20028;-51
2022/03/19 10:34:19;;;;;;;;;;;12.40;27.70;;;;;;5068754;28;20041;-51
2022/03/19 10:37:54;;;;;;;13.20;6.88;;;12.00;29.00;;;;;;5050404;28;19909;-51
2022/03/19 10:41:19;;;;;;;13.15;7.78;;;11.70;30.00;;;;;;5055160;28;20052;-50
2022/03/19 10:44:56;;;;;;;14.45;7.20;;;11.40;33.40;;;;;;5049859;28;20033;-50
2022/03/19 10:48:22;;;;;;;19.02;8.35;;;11.40;34.10;;;;;;5041904;28;20076;-51
2022/03/19 10:51:48;;;;;;;18.42;7.90;;;11.40;33.00;;;;;;5063001;28;20032;-51
2022/03/19 10:55:13;;;;;;;14.20;6.75;;;11.30;33.40;;;;;;5050822;28;20036;-49
2022/03/19 10:58:38;;;;;;;13.80;6.68;;;10.90;35.60;;;;;;5061906;28;20040;-51
2022/03/19 11:02:03;;;;;;;16.55;8.27;;;10.70;37.20;;;;;;5066695;28;20707;-47
2022/03/19 11:05:29;;;;;;;15.50;6.93;;;10.20;40.70;;;;;;5052021;28;20087;-48
2022/03/19 11:08:55;;;;;;;16.00;7.50;;;10.20;41.70;;;;;;5060726;28;20515;-50
2022/03/19 11:12:29;;;;;;;20.33;8.70;;;10.40;42.80;;;;;;5050322;28;20043;-50
2022/03/19 11:15:55;;;;;;;17.75;9.40;;;10.50;41.60;;;;;;5065872;28;20108;-56
2022/03/19 11:19:19;;;;;;;24.38;10.15;;;10.20;41.70;;;;;;5069474;28;20463;-56
2022/03/19 11:22:46;;;;;;;18.17;9.77;;;9.90;43.50;;;;;;5054358;28;20043;-53
2022/03/19 11:26:13;;;;;;;20.90;11.45;;;9.40;46.70;;;;;;5067612;28;20044;-52
2022/03/19 11:29:38;;;;;;;21.35;8.90;;;9.30;51.80;;;;;;5060501;28;20036;-54
2022/03/19 11:33:03;;;;;;;20.92;9.68;;;9.20;50.50;;;;;;5051597;28;20500;-49
2022/03/19 11:36:28;;;;;;;18.02;9.63;;;9.20;53.70;;;;;;5057989;28;20047;-50
2022/03/19 11:39:53;;;;;;;19.13;10.20;;;9.30;53.40;;;;;;5056770;28;20041;-49
2022/03/19 11:43:37;;;;;;;24.33;11.43;;;9.30;54.20;;;;;;5062623;28;20098;-49
2022/03/19 11:47:10;;;;;;;19.77;9.85;;;9.40;53.00;;;;;;5052478;28;20570;-49
2022/03/19 11:50:42;;;;;;;29.23;12.75;;;9.50;56.40;;;;;;5051630;28;20500;-53
2022/03/19 11:53:25;;;;;;;21.85;11.32;;;9.50;55.60;;;;;;5051599;28;20033;-60
2022/03/19 11:56:00;;;;;;;25.80;12.00;;;9.30;56.10;;;;;;5070652;28;20047;-60
2022/03/19 11:58:26;;;;;;;24.42;10.95;;;9.10;59.40;;;;;;5046641;28;20059;-60
2022/03/19 12:01:31;;;;;;;22.33;12.32;;;9.10;60.80;;;;;;5070685;28;20488;-60
2022/03/19 12:05:09;;;;;;;21.15;11.57;;;8.90;59.90;;;;;;5059771;28;20038;-59
2022/03/19 12:08:37;;;;;;;24.75;12.43;;;8.70;62.50;;;;;;5044700;28;20033;-59
2022/03/19 12:12:03;;;;;;;23.92;13.15;;;8.70;64.80;;;;;;5067122;28;20094;-58
2022/03/19 12:15:27;;;;;;;27.70;13.93;;;8.60;63.30;;;;;;5069036;28;20452;-59
2022/03/19 12:19:01;;;;;;;38.83;16.50;;;8.60;64.20;;;;;;5044089;28;20045;-59
2022/03/19 12:22:27;;;;;;;27.55;14.60;;;8.50;61.10;;;;;;5065146;28;20036;-59
2022/03/19 12:25:55;;;;;;;27.13;13.07;;;8.40;57.30;;;;;;5030625;28;20525;-59
2022/03/19 12:29:00;;;;;;;;;;;8.50;51.10;;;;;;5048429;28;20029;-59
2022/03/19 12:32:26;;;;;;;25.00;12.95;;;8.60;44.00;;;;;;5053967;28;20138;-60
2022/03/19 12:35:34;;;;;;;21.98;12.38;;;8.80;45.50;;;;;;5030498;28;20036;-59
2022/03/19 12:39:03;;;;;;;24.15;12.77;;;8.80;49.40;;;;;;5048285;28;20102;-60
2022/03/19 12:42:08;;;;;;;;;;;8.90;53.20;;;;;;5061136;28;20075;-59
2022/03/19 12:45:33;;;;;;;26.92;14.82;;;9.00;48.90;;;;;;5064631;28;19961;-60
2022/03/19 12:48:59;;;;;;;25.63;14.18;;;9.20;41.80;;;;;;5060312;28;20038;-58
2022/03/19 12:52:26;;;;;;;22.70;12.80;;;9.10;36.60;;;;;;5053652;28;20217;-57
2022/03/19 12:55:49;;;;;;;19.70;12.43;;;9.10;35.50;;;;;;5065611;28;20037;-58
2022/03/19 12:59:21;;;;;;;25.58;13.00;;;9.20;34.70;;;;;;5066310;28;20618;-60
2022/03/19 13:02:46;;;;;;;23.25;13.10;;;9.20;35.10;;;;;;5052539;28;20120;-60
2022/03/19 13:06:12;;;;;;;23.92;13.30;;;9.30;33.30;;;;;;5058717;28;20036;-60
2022/03/19 13:09:49;;;;;;;29.50;14.68;;;9.30;30.90;;;;;;5058499;28;20140;-61
2022/03/19 13:13:23;;;;;;;38.95;14.70;;;9.30;31.70;;;;;;5058587;28;20029;-60
2022/03/19 13:16:51;;;;;;;21.50;12.43;;;9.30;33.40;;;;;;5045004;28;20045;-59
2022/03/19 13:20:14;;;;;;;21.40;12.55;;;9.30;35.90;;;;;;5064873;28;20052;-58
2022/03/19 13:23:40;;;;;;;21.90;12.48;;;9.40;33.60;;;;;;5061249;28;20115;-58
2022/03/19 13:27:08;;;;;;;30.80;12.68;;;9.40;34.30;;;;;;5042421;28;20061;-59
2022/03/19 13:30:14;;;;;;;;;;;9.50;34.80;;;;;;5059573;28;20733;-59
2022/03/19 13:33:39;;;;;;;27.60;14.27;;;9.60;32.70;;;;;;5065883;28;19957;-59
2022/03/19 13:37:23;;;;;;;24.52;14.13;;;9.70;32.20;;;;;;5042209;28;20070;-59
2022/03/19 13:40:50;;;;;;;22.52;12.82;;;9.90;32.70;;;;;;5062614;28;20040;-58
2022/03/19 13:44:15;;;;;;;26.02;13.68;;;9.90;34.70;;;;;;5048858;28;20033;-57
2022/03/19 13:47:22;;;;;;;;;;;10.00;33.00;;;;;;5045913;28;20112;-59
2022/03/19 13:50:46;;;;;;;22.90;13.45;;;10.00;32.50;;;;;;5030507;28;19908;-59
2022/03/19 13:54:24;;;;;;;22.00;12.38;;;10.00;32.20;;;;;;5029244;28;20055;-56
2022/03/19 13:57:58;;;;;;;21.13;13.13;;;10.10;30.80;;;;;;5048925;28;20116;-59
2022/03/19 14:01:30;;;;;;;22.73;12.65;;;10.10;31.10;;;;;;5047609;28;20033;-59
2022/03/19 14:04:58;;;;;;;21.40;12.43;;;10.30;30.20;;;;;;5062864;28;20484;-58
2022/03/19 14:08:03;;;;;;;;;;;10.20;29.50;;;;;;5065944;28;20051;-59
2022/03/19 14:11:29;;;;;;;20.13;12.02;;;10.10;29.30;;;;;;5046706;28;19909;-59
2022/03/19 14:14:57;;;;;;;24.25;13.07;;;10.00;29.80;;;;;;5057626;28;20059;-60
2022/03/19 14:18:26;;;;;;;21.70;12.50;;;10.00;30.00;;;;;;5062992;28;20041;-58
2022/03/19 14:21:51;;;;;;;21.17;11.18;;;10.00;28.70;;;;;;5050595;28;20061;-59
2022/03/19 14:25:16;;;;;;;18.83;11.57;;;10.00;29.30;;;;;;5057385;28;20515;-59
2022/03/19 14:28:46;;;;;;;19.67;11.70;;;10.00;29.40;;;;;;5064918;28;20041;-59
2022/03/19 14:31:50;;;;;;;;;;;9.90;29.70;;;;;;5043833;28;20044;-59
2022/03/19 14:35:15;;;;;;;20.30;12.05;;;10.00;28.60;;;;;;5035385;28;20513;-59
2022/03/19 14:38:41;;;;;;;27.23;14.88;;;10.10;27.00;;;;;;5073793;28;20038;-59
2022/03/19 14:42:06;;;;;;;19.02;12.98;;;10.10;26.50;;;;;;5055646;28;20041;-59
2022/03/19 14:45:32;;;;;;;22.70;13.38;;;10.20;26.90;;;;;;5066554;28;20036;-59
2022/03/19 14:48:57;;;;;;;28.10;14.95;;;10.30;25.40;;;;;;5066073;28;20138;-58
2022/03/19 14:52:22;;;;;;;19.83;12.13;;;10.40;24.20;;;;;;5049712;28;20040;-61
2022/03/19 14:55:49;;;;;;;26.65;13.00;;;10.50;22.60;;;;;;5058972;28;20048;-59
2022/03/19 14:59:13;;;;;;;17.52;11.52;;;10.50;22.50;;;;;;5035111;28;20630;-59
2022/03/19 15:02:38;;;;;;;25.88;14.00;;;10.40;22.50;;;;;;5053338;28;20041;-60
2022/03/19 15:06:04;;;;;;;24.10;13.55;;;10.20;22.90;;;;;;5056382;28;20040;-59
2022/03/19 15:09:29;;;;;;;25.10;14.02;;;9.90;23.30;;;;;;5054984;28;20033;-59
2022/03/19 15:12:55;;;;;;;21.15;12.43;;;9.80;23.60;;;;;;5063758;28;20400;-59
2022/03/19 15:16:22;;;;;;;21.15;13.18;;;9.80;24.00;;;;;;5054016;28;20041;-59
2022/03/19 15:19:45;;;;;;;22.45;14.23;;;9.80;23.80;;;;;;5070590;28;20526;-59
2022/03/19 15:23:11;;;;;;;22.80;13.90;;;9.80;23.40;;;;;;5073046;28;20078;-59
2022/03/19 15:26:36;;;;;;;22.92;13.25;;;9.80;23.70;;;;;;5051877;28;20525;-59
2022/03/19 15:30:02;;;;;;;24.90;14.77;;;9.80;23.50;;;;;;5071185;28;20045;-58
2022/03/19 15:33:27;;;;;;;23.25;13.77;;;9.80;23.60;;;;;;5072860;28;20051;-59
2022/03/19 15:36:52;;;;;;;19.30;12.95;;;9.80;23.30;;;;;;5049371;28;20059;-59
2022/03/19 15:40:17;;;;;;;21.27;13.45;;;9.80;23.60;;;;;;5063456;28;20052;-57
2022/03/19 15:43:43;;;;;;;22.35;13.63;;;9.80;23.00;;;;;;5061730;28;20500;-58
2022/03/19 15:47:08;;;;;;;20.65;14.73;;;9.70;23.00;;;;;;5050850;28;20033;-60
2022/03/19 15:50:34;;;;;;;25.80;14.75;;;9.70;22.50;;;;;;5055164;28;20037;-60
2022/03/19 15:53:59;;;;;;;27.73;16.58;;;9.70;22.60;;;;;;5065518;28;20029;-57
2022/03/19 15:57:24;;;;;;;25.75;13.15;;;9.60;22.40;;;;;;5046166;28;20048;-59
2022/03/19 16:00:50;;;;;;;29.23;15.50;;;9.50;23.00;;;;;;5061931;28;20047;-57
2022/03/19 16:04:17;;;;;;;39.10;16.85;;;9.50;22.50;;;;;;5031201;28;20045;-58
2022/03/19 16:07:41;;;;;;;57.47;18.73;;;9.50;22.50;;;;;;5048080;28;20063;-58
2022/03/19 16:11:06;;;;;;;30.05;16.50;;;9.50;21.50;;;;;;5051822;28;20040;-59
2022/03/19 16:14:31;;;;;;;37.58;17.05;;;9.40;22.80;;;;;;5050894;28;20382;-58
2022/03/19 16:18:00;;;;;;;29.95;17.20;;;9.40;22.60;;;;;;5059738;28;20028;-58
2022/03/19 16:21:05;;;;;;;;;;;9.20;23.00;;;;;;5049894;28;20401;-60
2022/03/19 16:24:31;;;;;;;31.23;17.63;;;9.20;22.90;;;;;;5032906;28;20365;-59
2022/03/19 16:27:59;;;;;;;40.35;18.13;;;9.20;23.20;;;;;;5030478;28;20045;-58
2022/03/19 16:31:21;;;;;;;31.02;16.85;;;9.00;23.60;;;;;;5048846;28;20051;-56
2022/03/19 16:34:49;;;;;;;34.05;18.58;;;8.90;24.70;;;;;;5059344;28;20040;-57
2022/03/19 16:38:13;;;;;;;34.35;18.02;;;8.80;24.20;;;;;;5064462;28;20029;-58
2022/03/19 16:41:37;;;;;;;38.30;17.95;;;8.80;24.40;;;;;;5054107;28;20416;-58
2022/03/19 16:45:02;;;;;;;26.52;15.63;;;8.70;24.50;;;;;;5066701;28;20195;-59
2022/03/19 16:48:28;;;;;;;34.47;16.70;;;8.50;25.20;;;;;;5061236;28;20036;-58
2022/03/19 16:51:53;;;;;;;27.13;16.10;;;8.40;25.70;;;;;;5040592;28;20037;-58
2022/03/19 16:55:18;;;;;;;27.58;16.40;;;8.30;25.80;;;;;;5058169;28;20094;-59
2022/03/19 16:58:44;;;;;;;31.38;17.50;;;8.20;26.30;;;;;;5058966;28;20032;-60
2022/03/19 17:02:09;;;;;;;30.02;14.52;;;8.20;26.40;;;;;;5042979;28;20051;-59
2022/03/19 17:05:35;;;;;;;26.88;16.80;;;8.00;26.80;;;;;;5029731;28;20557;-60
2022/03/19 17:09:00;;;;;;;34.45;18.20;;;7.90;27.10;;;;;;5064199;28;20032;-59
2022/03/19 17:12:25;;;;;;;31.67;18.85;;;7.80;27.20;;;;;;5044738;28;20492;-60
2022/03/19 17:15:51;;;;;;;30.52;17.50;;;7.80;27.90;;;;;;5052716;28;20037;-58
2022/03/19 17:19:16;;;;;;;33.42;20.33;;;7.70;28.00;;;;;;5068647;28;20036;-58
2022/03/19 17:22:42;;;;;;;31.73;20.08;;;7.70;27.60;;;;;;5046768;28;20459;-60
2022/03/19 17:26:07;;;;;;;31.48;18.48;;;7.70;27.80;;;;;;5050176;28;20045;-58
2022/03/19 17:29:32;;;;;;;36.22;19.45;;;7.60;27.80;;;;;;5049448;28;20704;-59
2022/03/19 17:32:58;;;;;;;31.65;18.42;;;7.40;28.10;;;;;;5058303;28;20033;-59
2022/03/19 17:36:23;;;;;;;35.30;19.27;;;7.40;28.10;;;;;;5050512;28;20163;-60
2022/03/19 17:39:48;;;;;;;29.08;18.70;;;7.40;27.80;;;;;;5034801;28;20594;-59
2022/03/19 17:43:14;;;;;;;33.22;18.55;;;7.20;27.60;;;;;;5047009;28;20040;-59
2022/03/19 17:46:39;;;;;;;34.47;19.52;;;7.20;28.10;;;;;;5049301;28;20568;-60
2022/03/19 17:50:04;;;;;;;30.77;18.80;;;7.10;28.20;;;;;;5054868;28;20098;-60